This is the latest recevied weather packets stored in our database for station/object G4MHJ-1. If no packets are shown the sender has not sent any weather packets the latest 10 day(s).
| Time | Temp. | Humidity | Pressure | Rain* | Wind** | Luminosity | Snow |
|---|---|---|---|---|---|---|---|
| 1777929662 | 12.78° C | 91% | 1014.4 hPa | 0 mm | - | 0 W/m² | - |
| 1777926062 | 13.33° C | 90% | 1014.5 hPa | 0 mm | - | 0 W/m² | - |
| 1777922460 | 13.33° C | 88% | 1014.1 hPa | 0 mm | - | 5 W/m² | - |
| 1777918860 | 14.44° C | 82% | 1013.8 hPa | 0 mm | - | 46 W/m² | - |
| 1777915259 | 15° C | 82% | 1013.9 hPa | 0 mm | - | 74 W/m² | - |
| 1777911658 | 15° C | 82% | 1013.9 hPa | 0 mm | - | 39 W/m² | - |
| 1777908057 | 15° C | 82% | 1013.9 hPa | 0 mm | - | 113 W/m² | - |
| 1777904458 | 15° C | 83% | 1014.1 hPa | 0 mm | - | 123 W/m² | - |
| 1777900858 | 15° C | 81% | 1014.2 hPa | 0 mm | - | 93 W/m² | - |
| 1777897257 | 14.44° C | 84% | 1014.1 hPa | 0 mm | - | 128 W/m² | - |
| 1777893655 | 13.89° C | 87% | 1014.4 hPa | 0 mm | - | 151 W/m² | - |
| 1777890056 | 13.33° C | 88% | 1014.3 hPa | 0 mm | - | 74 W/m² | - |
| 1777886455 | 12.78° C | 90% | 1014.2 hPa | 0 mm | - | 97 W/m² | - |
| 1777882852 | 12.22° C | 92% | 1014 hPa | 0 mm | - | 62 W/m² | - |
| 1777879252 | 11.67° C | 93% | 1013.4 hPa | 0 mm | - | 46 W/m² | - |
| 1777875652 | 12.22° C | 94% | 1012.7 hPa | 0 mm | - | 25 W/m² | - |
| 1777872050 | 12.22° C | 95% | 1012.1 hPa | 0 mm | - | 9 W/m² | - |
| 1777868447 | 11.67° C | 93% | 1011.6 hPa | 0 mm | - | 0 W/m² | - |
| 1777864848 | 12.22° C | 92% | 1011.6 hPa | 0 mm | - | 0 W/m² | - |
| 1777861248 | 12.78° C | 89% | 1011.3 hPa | 0 mm | - | 0 W/m² | - |
| 1777857645 | 13.33° C | 88% | 1011.3 hPa | 0 mm | - | 0 W/m² | - |
| 1777854046 | 13.89° C | 85% | 1011 hPa | 0 mm | - | 0 W/m² | - |
| 1777850445 | 14.44° C | 84% | 1010.9 hPa | 0 mm | - | 0 W/m² | - |
| 1777846845 | 15° C | 82% | 1010.5 hPa | 0 mm | - | 0 W/m² | - |
| 1777843244 | 15.56° C | 76% | 1010.3 hPa | 0 mm | - | 0 W/m² | - |
* Rain latest hour (hover to see other rain measurements)
** Current wind speed in m/s (hover to see current wind gust speed)